createdAt,value
2022-07-29T00:02:27.189Z,99.90
2022-07-29T00:04:54.467Z,99.90
2022-07-29T00:07:21.906Z,99.90
2022-07-29T00:09:51.662Z,99.90
2022-07-29T00:12:25.200Z,99.90
2022-07-29T00:14:57.422Z,99.90
2022-07-29T00:17:25.379Z,99.90
2022-07-29T00:19:52.703Z,99.90
2022-07-29T00:22:20.692Z,99.90
2022-07-29T00:24:50.213Z,99.90
2022-07-29T00:27:17.971Z,99.90
2022-07-29T00:29:45.163Z,99.90
2022-07-29T00:32:12.268Z,99.90
2022-07-29T00:34:57.722Z,99.90
2022-07-29T00:37:24.877Z,99.90
2022-07-29T00:39:52.150Z,99.90
2022-07-29T00:42:19.140Z,99.90
2022-07-29T00:44:46.280Z,99.90
2022-07-29T00:47:13.780Z,99.90
2022-07-29T00:49:42.161Z,99.90
2022-07-29T00:52:10.962Z,99.90
2022-07-29T00:54:44.709Z,99.90
2022-07-29T00:57:13.137Z,99.90
2022-07-29T00:59:40.736Z,99.90
2022-07-29T01:02:07.823Z,99.90
2022-07-29T01:04:35.315Z,99.90
2022-07-29T01:07:04.000Z,99.90
2022-07-29T01:09:34.349Z,99.90
2022-07-29T01:12:14.590Z,99.90
2022-07-29T01:14:42.703Z,99.90
2022-07-29T01:17:20.160Z,99.90
2022-07-29T01:19:57.191Z,99.90
2022-07-29T01:22:35.000Z,99.90
2022-07-29T01:25:35.872Z,99.90
2022-07-29T01:28:16.153Z,99.90
2022-07-29T01:30:47.615Z,99.90
2022-07-29T01:33:38.369Z,99.90
2022-07-29T01:36:12.170Z,99.90
2022-07-29T01:38:42.947Z,99.90
2022-07-29T01:41:17.528Z,99.90
2022-07-29T01:43:54.805Z,99.90
2022-07-29T01:46:39.443Z,99.90
2022-07-29T01:49:16.406Z,99.90
2022-07-29T01:51:52.812Z,99.90
2022-07-29T01:54:31.785Z,99.90
2022-07-29T01:57:01.055Z,99.90
2022-07-29T01:59:30.233Z,99.90
2022-07-29T02:01:59.912Z,99.90
2022-07-29T02:04:30.394Z,99.90
2022-07-29T02:07:02.830Z,99.90
2022-07-29T02:09:32.716Z,99.90
2022-07-29T02:12:02.239Z,99.90
2022-07-29T02:14:35.121Z,99.90
2022-07-29T02:17:03.440Z,99.90
2022-07-29T02:19:33.334Z,99.90
2022-07-29T02:22:01.582Z,99.90
2022-07-29T02:24:30.767Z,99.90
2022-07-29T02:27:00.298Z,99.90
2022-07-29T02:29:29.785Z,99.90
2022-07-29T02:31:59.833Z,99.90
2022-07-29T02:34:28.109Z,99.90
2022-07-29T02:36:56.884Z,99.90
2022-07-29T02:39:25.575Z,99.90
2022-07-29T02:41:56.775Z,99.90
2022-07-29T02:44:31.266Z,99.90
2022-07-29T02:47:22.324Z,99.90
2022-07-29T02:50:01.217Z,99.90
2022-07-29T02:52:51.736Z,99.90
2022-07-29T02:55:33.100Z,99.90
2022-07-29T02:58:04.570Z,99.90
2022-07-29T03:00:35.307Z,99.90
2022-07-29T03:03:08.712Z,99.90
2022-07-29T03:05:36.406Z,99.90
2022-07-29T03:08:07.754Z,99.90
2022-07-29T03:10:35.780Z,99.90
2022-07-29T03:13:03.066Z,99.90
2022-07-29T03:15:30.750Z,99.90
2022-07-29T03:17:59.116Z,99.90
2022-07-29T03:20:27.446Z,99.90
2022-07-29T03:22:54.464Z,99.90
2022-07-29T03:25:22.028Z,99.90
2022-07-29T03:27:49.354Z,99.90
2022-07-29T03:30:18.314Z,99.90
2022-07-29T03:32:52.118Z,99.90
2022-07-29T03:35:20.663Z,99.90
2022-07-29T03:37:47.667Z,99.90
2022-07-29T03:40:28.715Z,99.90
2022-07-29T03:42:56.957Z,99.90
2022-07-29T03:45:25.159Z,99.90
2022-07-29T03:48:00.675Z,99.90
2022-07-29T03:50:31.208Z,99.90
2022-07-29T03:52:59.072Z,99.90
2022-07-29T03:55:27.716Z,99.90
2022-07-29T03:57:56.831Z,99.90
2022-07-29T04:00:26.629Z,99.90
2022-07-29T04:02:53.860Z,99.90
2022-07-29T04:05:21.004Z,99.90
2022-07-29T04:07:48.768Z,99.90
2022-07-29T04:10:16.911Z,99.90
2022-07-29T04:12:44.566Z,99.90
2022-07-29T04:15:12.536Z,99.90
2022-07-29T04:17:39.787Z,99.90
2022-07-29T04:20:07.264Z,99.90
2022-07-29T04:22:34.312Z,99.90
2022-07-29T04:25:04.002Z,99.90
2022-07-29T04:27:31.407Z,99.90
2022-07-29T04:29:58.715Z,99.90
2022-07-29T04:32:26.247Z,99.90
2022-07-29T04:34:53.738Z,99.90
2022-07-29T04:37:20.720Z,99.90
2022-07-29T04:39:47.735Z,99.90
2022-07-29T04:42:14.789Z,99.90
2022-07-29T04:44:44.349Z,99.90
2022-07-29T04:47:12.648Z,99.90
2022-07-29T04:49:40.211Z,99.90
2022-07-29T04:52:07.930Z,99.90
2022-07-29T04:54:35.052Z,99.90
2022-07-29T04:57:02.033Z,99.90
2022-07-29T04:59:29.054Z,99.90
2022-07-29T05:01:56.181Z,99.90
2022-07-29T05:04:24.111Z,99.90
2022-07-29T05:06:51.320Z,99.90
2022-07-29T05:09:18.361Z,99.90
2022-07-29T05:11:45.397Z,99.90
2022-07-29T05:14:12.405Z,99.90
2022-07-29T05:16:41.198Z,99.90
2022-07-29T05:19:13.655Z,99.90
2022-07-29T05:21:41.347Z,99.90
2022-07-29T05:24:09.042Z,99.90
2022-07-29T05:26:36.028Z,99.90
2022-07-29T05:29:03.153Z,99.90
2022-07-29T05:31:30.205Z,99.90
2022-07-29T05:33:57.298Z,99.90
2022-07-29T05:36:24.351Z,99.90
2022-07-29T05:38:53.185Z,99.90
2022-07-29T05:41:20.647Z,99.90
2022-07-29T05:43:47.889Z,99.90
2022-07-29T05:46:17.828Z,99.90
2022-07-29T05:48:45.021Z,99.90
2022-07-29T05:51:12.177Z,99.90
2022-07-29T05:53:39.233Z,99.90
2022-07-29T05:56:06.944Z,99.90
2022-07-29T05:58:34.043Z,99.90
2022-07-29T06:01:01.783Z,99.90
2022-07-29T06:03:29.335Z,99.90
2022-07-29T06:05:57.327Z,99.90
2022-07-29T06:08:24.700Z,99.90
2022-07-29T06:10:51.698Z,99.90
2022-07-29T06:13:18.754Z,99.90
2022-07-29T06:15:45.966Z,99.90
2022-07-29T06:18:14.513Z,99.90
2022-07-29T06:20:42.027Z,99.90
2022-07-29T06:23:09.095Z,99.90
2022-07-29T06:25:37.776Z,99.90
2022-07-29T06:28:05.145Z,99.90
2022-07-29T06:30:32.321Z,99.90
2022-07-29T06:32:59.508Z,99.90
2022-07-29T06:35:41.714Z,99.90
2022-07-29T06:38:31.415Z,99.90
2022-07-29T06:41:07.094Z,99.90
2022-07-29T06:43:36.291Z,99.90
2022-07-29T06:46:20.795Z,99.90
2022-07-29T06:48:51.419Z,99.90
2022-07-29T06:51:22.967Z,99.90
2022-07-29T06:53:59.564Z,99.90
2022-07-29T06:56:38.582Z,99.90
2022-07-29T06:59:10.537Z,99.90
2022-07-29T07:01:44.789Z,99.90
2022-07-29T07:04:14.912Z,99.90
2022-07-29T07:09:39.936Z,99.90
2022-07-29T07:12:08.984Z,99.90
2022-07-29T07:14:36.082Z,99.90
2022-07-29T07:17:04.977Z,99.90
2022-07-29T07:19:32.208Z,99.90
2022-07-29T07:22:01.919Z,99.90
2022-07-29T07:24:34.182Z,99.90
2022-07-29T07:27:01.389Z,99.90
2022-07-29T07:29:28.428Z,99.90
2022-07-29T07:32:00.653Z,99.90
2022-07-29T07:34:31.131Z,99.90
2022-07-29T07:37:00.600Z,99.90
2022-07-29T07:39:30.326Z,99.90
2022-07-29T07:41:58.188Z,99.90
2022-07-29T07:44:29.362Z,99.90
2022-07-29T07:47:08.545Z,99.90
2022-07-29T07:49:38.269Z,99.90
2022-07-29T07:52:07.563Z,99.90
2022-07-29T07:54:36.648Z,99.90
2022-07-29T07:57:05.533Z,99.90
2022-07-29T07:59:36.251Z,99.90
2022-07-29T08:02:06.804Z,99.90
2022-07-29T08:04:34.577Z,99.90
2022-07-29T08:07:01.812Z,99.90
2022-07-29T08:09:30.757Z,99.90
2022-07-29T08:12:00.429Z,99.90
2022-07-29T08:14:27.445Z,99.90
2022-07-29T08:16:54.972Z,99.90
2022-07-29T08:19:22.127Z,99.90
2022-07-29T08:21:51.695Z,99.90
2022-07-29T08:24:37.333Z,99.90
2022-07-29T08:27:12.857Z,99.90
2022-07-29T08:29:51.635Z,99.90
2022-07-29T08:32:36.884Z,99.90
2022-07-29T08:35:06.087Z,99.90
2022-07-29T08:37:33.132Z,99.90
2022-07-29T08:40:00.144Z,99.90
2022-07-29T08:42:27.320Z,99.20
2022-07-29T08:44:55.719Z,99.90
2022-07-29T08:47:25.142Z,98.50
2022-07-29T08:49:52.257Z,98.40
2022-07-29T08:52:21.168Z,97.40
2022-07-29T08:54:50.769Z,98.30
2022-07-29T08:57:20.573Z,97.80
2022-07-29T08:59:55.370Z,98.20
2022-07-29T09:02:23.739Z,99.90
2022-07-29T09:04:51.135Z,99.30
2022-07-29T09:07:19.468Z,97.60
2022-07-29T09:09:46.834Z,97.20
2022-07-29T09:12:29.268Z,96.30
2022-07-29T09:15:02.123Z,96.20
2022-07-29T09:17:50.226Z,95.30
2022-07-29T09:20:23.419Z,94.60
2022-07-29T09:22:53.787Z,93.50
2022-07-29T09:25:38.101Z,93.40
2022-07-29T09:28:13.017Z,92.80
2022-07-29T09:31:03.962Z,92.10
2022-07-29T09:33:41.497Z,93.00
2022-07-29T09:36:10.593Z,93.40
2022-07-29T09:38:38.476Z,94.10
2022-07-29T09:41:07.070Z,95.40
2022-07-29T09:43:35.110Z,95.40
2022-07-29T09:46:15.151Z,94.60
2022-07-29T09:48:42.430Z,92.90
2022-07-29T09:51:26.862Z,92.40
2022-07-29T09:53:55.846Z,91.20
2022-07-29T09:56:42.873Z,91.40
2022-07-29T09:59:12.258Z,90.00
2022-07-29T10:01:39.505Z,90.10
2022-07-29T10:04:06.907Z,90.20
2022-07-29T10:06:34.167Z,88.20
2022-07-29T10:09:12.268Z,88.30
2022-07-29T10:11:56.780Z,87.60
2022-07-29T10:14:24.192Z,89.90
2022-07-29T10:16:51.409Z,87.40
2022-07-29T10:19:18.796Z,89.80
2022-07-29T10:21:46.423Z,87.40
2022-07-29T10:24:15.539Z,86.60
2022-07-29T10:26:43.824Z,84.70
2022-07-29T10:29:11.118Z,83.90
2022-07-29T10:32:11.232Z,83.30
2022-07-29T10:35:26.457Z,82.90
2022-07-29T10:38:29.247Z,84.80
2022-07-29T10:41:44.252Z,86.50
2022-07-29T10:44:24.033Z,86.00
2022-07-29T10:46:52.918Z,85.40
2022-07-29T10:49:28.088Z,87.40
2022-07-29T10:52:07.088Z,88.80
2022-07-29T10:54:37.198Z,88.60
2022-07-29T10:57:25.662Z,89.60
2022-07-29T11:00:35.448Z,89.40
2022-07-29T11:03:04.603Z,90.10
2022-07-29T11:05:55.733Z,89.60
2022-07-29T11:08:29.216Z,90.00
2022-07-29T11:11:22.444Z,90.80
2022-07-29T11:13:57.245Z,90.90
2022-07-29T11:16:25.121Z,91.00
2022-07-29T11:19:15.014Z,92.20
2022-07-29T11:21:54.854Z,92.40
2022-07-29T11:24:33.369Z,92.40
2022-07-29T11:27:09.305Z,93.40
2022-07-29T11:29:40.423Z,94.10
2022-07-29T11:32:18.430Z,94.80
2022-07-29T11:35:17.732Z,95.80
2022-07-29T11:37:52.179Z,97.00
2022-07-29T11:40:34.491Z,97.90
2022-07-29T11:43:03.070Z,99.30
2022-07-29T11:45:48.239Z,99.80
2022-07-29T11:48:29.687Z,99.90
2022-07-29T11:51:00.096Z,99.90
2022-07-29T11:53:28.986Z,99.90
2022-07-29T11:56:00.725Z,99.90
2022-07-29T11:58:29.564Z,99.90
2022-07-29T12:00:57.906Z,99.90
2022-07-29T12:03:32.989Z,99.90
2022-07-29T12:06:03.617Z,99.90
2022-07-29T12:08:31.347Z,99.90
2022-07-29T12:10:58.436Z,99.90
2022-07-29T12:13:37.485Z,99.90
2022-07-29T12:16:05.460Z,99.90
2022-07-29T12:18:32.772Z,99.90
2022-07-29T12:21:04.922Z,99.90
2022-07-29T12:23:34.859Z,99.90
2022-07-29T12:26:07.705Z,99.90
2022-07-29T12:28:39.786Z,99.90
2022-07-29T12:31:08.191Z,99.90
2022-07-29T12:33:36.195Z,99.90
2022-07-29T12:36:10.441Z,99.90
2022-07-29T12:38:38.114Z,99.90
2022-07-29T12:41:05.353Z,99.90
2022-07-29T12:43:32.973Z,99.90
2022-07-29T12:46:14.597Z,99.90
2022-07-29T12:48:43.433Z,99.90
2022-07-29T12:51:12.766Z,99.90
2022-07-29T12:53:40.562Z,99.90
2022-07-29T12:56:41.384Z,99.90
2022-07-29T12:59:19.380Z,99.90
2022-07-29T13:01:49.583Z,99.90
2022-07-29T13:04:26.570Z,99.90
2022-07-29T13:07:01.459Z,99.90
2022-07-29T13:09:39.270Z,99.90
2022-07-29T13:12:11.399Z,99.90
2022-07-29T13:14:43.765Z,99.90
2022-07-29T13:17:24.069Z,99.90
2022-07-29T13:19:53.188Z,99.90
2022-07-29T13:22:25.775Z,99.90
2022-07-29T13:24:55.827Z,99.90
2022-07-29T13:27:27.040Z,99.90
2022-07-29T13:29:57.572Z,99.90
2022-07-29T13:32:28.321Z,99.90
2022-07-29T13:35:04.958Z,99.90
2022-07-29T13:37:35.300Z,99.90
2022-07-29T13:40:04.580Z,99.90
2022-07-29T13:42:33.051Z,99.90
2022-07-29T13:45:00.961Z,99.90
2022-07-29T13:47:32.444Z,99.90
2022-07-29T13:50:01.899Z,99.90
2022-07-29T13:52:29.558Z,99.90
2022-07-29T13:54:56.786Z,99.90
2022-07-29T13:57:24.024Z,99.90
2022-07-29T13:59:54.375Z,99.90
2022-07-29T14:02:25.692Z,99.90
2022-07-29T14:04:56.600Z,99.90
2022-07-29T14:07:23.872Z,99.90
2022-07-29T14:09:51.313Z,99.90
2022-07-29T14:12:18.741Z,99.90
2022-07-29T14:14:47.324Z,99.90
2022-07-29T14:17:16.761Z,99.90
2022-07-29T14:19:44.027Z,99.90
2022-07-29T14:22:11.370Z,99.90
2022-07-29T14:24:39.478Z,99.90
2022-07-29T14:27:07.803Z,99.90
2022-07-29T14:29:38.105Z,99.90
2022-07-29T14:32:11.271Z,99.90
2022-07-29T14:34:39.748Z,99.90
2022-07-29T14:37:07.699Z,99.90
2022-07-29T14:39:42.552Z,99.90
2022-07-29T14:42:12.454Z,99.90
2022-07-29T14:44:40.300Z,99.90
2022-07-29T14:47:08.258Z,99.90
2022-07-29T14:49:36.246Z,99.90
2022-07-29T14:52:03.757Z,99.90
2022-07-29T14:54:30.788Z,99.90
2022-07-29T14:56:58.726Z,99.90
2022-07-29T14:59:27.290Z,99.90
2022-07-29T15:01:54.614Z,99.90
2022-07-29T15:04:21.737Z,99.90
2022-07-29T15:06:49.054Z,99.90
2022-07-29T15:09:16.136Z,99.90
2022-07-29T15:11:43.190Z,99.90
2022-07-29T15:14:10.285Z,99.90
2022-07-29T15:16:38.526Z,99.90
2022-07-29T15:19:05.820Z,99.90
2022-07-29T15:21:33.249Z,99.90
2022-07-29T15:24:00.238Z,99.90
2022-07-29T15:26:27.441Z,99.90
2022-07-29T15:28:56.627Z,99.90
2022-07-29T15:31:23.650Z,99.90
2022-07-29T15:33:54.386Z,99.90
2022-07-29T15:36:51.056Z,99.90
2022-07-29T15:39:11.374Z,99.90
2022-07-29T15:41:38.624Z,99.90
2022-07-29T15:44:05.642Z,99.90
2022-07-29T15:46:50.977Z,99.90
2022-07-29T15:49:18.113Z,99.90
2022-07-29T15:51:45.451Z,99.90
2022-07-29T15:54:13.453Z,99.90
2022-07-29T15:56:40.906Z,99.90
2022-07-29T15:59:07.973Z,99.90
2022-07-29T16:01:34.996Z,99.90
2022-07-29T16:04:02.976Z,99.90
2022-07-29T16:06:30.121Z,99.90
2022-07-29T16:08:58.908Z,99.90
2022-07-29T16:11:26.224Z,99.90
2022-07-29T16:13:53.259Z,99.90
2022-07-29T16:16:20.435Z,99.90
2022-07-29T16:18:47.738Z,99.90
2022-07-29T16:21:14.985Z,99.90
2022-07-29T16:23:41.992Z,99.90
2022-07-29T16:26:09.060Z,99.90
2022-07-29T16:28:36.094Z,99.90
2022-07-29T16:31:03.678Z,99.90
2022-07-29T16:33:53.555Z,99.90
2022-07-29T16:36:19.127Z,99.90
2022-07-29T16:38:47.612Z,99.90
2022-07-29T16:41:14.872Z,99.90
2022-07-29T16:43:41.972Z,99.90
2022-07-29T16:46:12.503Z,99.90
2022-07-29T16:48:45.868Z,99.90
2022-07-29T16:51:14.260Z,99.90
2022-07-29T16:53:41.936Z,99.90
2022-07-29T16:56:12.958Z,99.90
2022-07-29T16:58:43.830Z,99.90
2022-07-29T17:01:11.900Z,99.90
2022-07-29T17:04:00.401Z,99.90
2022-07-29T17:06:29.545Z,99.90
2022-07-29T17:08:56.837Z,99.90
2022-07-29T17:11:52.580Z,99.90
2022-07-29T17:14:11.828Z,99.90
2022-07-29T17:16:38.870Z,99.90
2022-07-29T17:19:05.956Z,99.90
2022-07-29T17:21:33.030Z,99.90
2022-07-29T17:24:00.074Z,99.90
2022-07-29T17:26:30.194Z,99.90
2022-07-29T17:28:57.208Z,99.90
2022-07-29T17:31:24.269Z,99.90
2022-07-29T17:33:51.388Z,99.90
2022-07-29T17:36:24.169Z,99.90
2022-07-29T17:38:53.074Z,99.90
2022-07-29T17:41:21.711Z,99.90
2022-07-29T17:43:49.704Z,99.90
2022-07-29T17:46:17.802Z,99.90
2022-07-29T17:48:45.124Z,99.90
2022-07-29T17:51:12.583Z,99.90
2022-07-29T17:53:39.904Z,99.90
2022-07-29T17:56:07.246Z,99.90
2022-07-29T17:58:34.863Z,99.90
2022-07-29T18:01:02.040Z,99.90
2022-07-29T18:03:29.055Z,99.90
2022-07-29T18:05:56.215Z,99.90
2022-07-29T18:08:23.472Z,99.90
2022-07-29T18:10:51.123Z,99.90
2022-07-29T18:13:18.404Z,99.90
2022-07-29T18:15:46.213Z,99.90
2022-07-29T18:18:14.388Z,99.90
2022-07-29T18:20:42.894Z,99.90
2022-07-29T18:23:10.475Z,99.90
2022-07-29T18:25:37.953Z,99.90
2022-07-29T18:28:05.561Z,99.90
2022-07-29T18:30:37.963Z,99.90
2022-07-29T18:33:20.677Z,99.90
2022-07-29T18:35:50.820Z,99.90
2022-07-29T18:38:18.270Z,99.90
2022-07-29T18:40:46.158Z,99.90
2022-07-29T18:43:13.788Z,99.90
2022-07-29T18:45:42.558Z,99.90
2022-07-29T18:48:11.928Z,99.90
2022-07-29T18:50:40.567Z,99.90
2022-07-29T18:53:07.701Z,99.90
2022-07-29T18:55:34.839Z,99.90
2022-07-29T18:58:01.894Z,99.90
2022-07-29T19:00:28.964Z,99.90
2022-07-29T19:02:56.877Z,99.90
2022-07-29T19:05:24.824Z,99.90
2022-07-29T19:07:51.891Z,99.90
2022-07-29T19:10:18.942Z,99.90
2022-07-29T19:12:46.064Z,99.90
2022-07-29T19:15:13.107Z,99.90
2022-07-29T19:17:48.139Z,99.90
2022-07-29T19:20:15.704Z,99.90
2022-07-29T19:22:42.822Z,99.90
2022-07-29T19:25:10.238Z,99.90
2022-07-29T19:27:37.331Z,99.90
2022-07-29T19:30:06.576Z,99.90
2022-07-29T19:32:33.781Z,99.90
2022-07-29T19:35:19.571Z,99.90
2022-07-29T19:37:46.588Z,99.90
2022-07-29T19:40:13.812Z,99.90
2022-07-29T19:42:40.821Z,99.90
2022-07-29T19:45:08.417Z,99.90
2022-07-29T19:47:35.678Z,99.90
2022-07-29T19:50:02.979Z,99.90
2022-07-29T19:52:29.983Z,99.90
2022-07-29T19:54:57.184Z,99.90
2022-07-29T19:57:24.287Z,99.90
2022-07-29T19:59:51.304Z,99.90
2022-07-29T20:02:18.490Z,99.90
2022-07-29T20:04:45.662Z,99.90
2022-07-29T20:07:13.687Z,99.90
2022-07-29T20:09:41.384Z,99.90
2022-07-29T20:12:09.566Z,99.90
2022-07-29T20:14:37.218Z,99.90
2022-07-29T20:17:05.034Z,99.90
2022-07-29T20:19:33.015Z,99.90
2022-07-29T20:22:00.287Z,99.90
2022-07-29T20:24:27.482Z,99.90
2022-07-29T20:26:54.570Z,99.90
2022-07-29T20:29:21.790Z,99.90
2022-07-29T20:31:52.948Z,99.90
2022-07-29T20:34:23.716Z,99.90
2022-07-29T20:36:50.740Z,99.90
2022-07-29T20:39:17.871Z,99.90
2022-07-29T20:41:44.948Z,99.90
2022-07-29T20:44:12.044Z,99.90
2022-07-29T20:46:39.573Z,99.90
2022-07-29T20:49:06.720Z,99.90
2022-07-29T20:51:43.418Z,99.90
2022-07-29T20:54:11.575Z,99.90
2022-07-29T20:56:38.899Z,99.90
2022-07-29T20:59:05.872Z,99.90
2022-07-29T21:01:32.971Z,99.90
2022-07-29T21:04:01.789Z,99.90
2022-07-29T21:06:29.172Z,99.90
2022-07-29T21:08:58.047Z,99.90
2022-07-29T21:11:43.651Z,99.90
2022-07-29T21:14:38.182Z,99.90
2022-07-29T21:17:07.286Z,99.90
2022-07-29T21:19:35.369Z,99.90
2022-07-29T21:22:02.466Z,99.90
2022-07-29T21:24:29.765Z,99.90
2022-07-29T21:27:21.551Z,99.90
2022-07-29T21:29:48.893Z,99.90
2022-07-29T21:32:27.646Z,99.90
2022-07-29T21:34:58.018Z,99.90
2022-07-29T21:37:25.307Z,99.90
2022-07-29T21:39:52.310Z,99.90
2022-07-29T21:42:19.441Z,99.90
2022-07-29T21:44:46.452Z,99.90
2022-07-29T21:47:13.645Z,99.90
2022-07-29T21:49:40.915Z,99.90
2022-07-29T21:52:08.967Z,99.90
2022-07-29T21:54:36.320Z,99.90
2022-07-29T21:57:04.006Z,99.90
2022-07-29T21:59:31.988Z,99.90
2022-07-29T22:02:01.587Z,99.90
2022-07-29T22:04:30.063Z,99.90
2022-07-29T22:06:58.195Z,99.90
2022-07-29T22:09:25.913Z,99.90
2022-07-29T22:11:53.068Z,99.90
2022-07-29T22:14:20.637Z,99.90
2022-07-29T22:16:48.271Z,99.90
2022-07-29T22:19:15.556Z,99.90
2022-07-29T22:21:42.676Z,99.90
2022-07-29T22:24:12.967Z,99.90
2022-07-29T22:26:40.031Z,99.90
2022-07-29T22:29:07.140Z,99.90
2022-07-29T22:31:34.445Z,99.90
2022-07-29T22:34:01.430Z,99.90
2022-07-29T22:36:28.462Z,99.90
2022-07-29T22:38:55.548Z,99.90
2022-07-29T22:41:22.562Z,99.90
2022-07-29T22:43:49.644Z,99.90
2022-07-29T22:46:16.812Z,99.90
2022-07-29T22:48:44.057Z,99.90
2022-07-29T22:51:11.268Z,99.90
2022-07-29T22:53:38.427Z,99.90
2022-07-29T22:56:05.859Z,99.90
2022-07-29T22:58:32.899Z,99.90
2022-07-29T23:00:59.888Z,99.90
2022-07-29T23:03:27.033Z,99.90
2022-07-29T23:05:54.088Z,99.90
2022-07-29T23:08:21.229Z,99.90
2022-07-29T23:10:48.330Z,99.90
2022-07-29T23:13:15.525Z,99.90
2022-07-29T23:15:42.554Z,99.90
2022-07-29T23:18:09.643Z,99.90
2022-07-29T23:20:36.908Z,99.90
2022-07-29T23:23:04.222Z,99.90
2022-07-29T23:25:31.373Z,99.90
2022-07-29T23:27:58.369Z,99.90
2022-07-29T23:30:25.668Z,99.90
2022-07-29T23:32:53.663Z,99.90
2022-07-29T23:35:21.040Z,99.90
2022-07-29T23:37:48.388Z,99.90
2022-07-29T23:40:15.808Z,99.90
2022-07-29T23:42:43.160Z,99.90
2022-07-29T23:45:14.163Z,99.90
2022-07-29T23:47:41.785Z,99.90
2022-07-29T23:50:12.158Z,99.90
2022-07-29T23:52:40.530Z,99.90
2022-07-29T23:55:37.636Z,99.90
2022-07-29T23:57:55.811Z,99.90
